x

Lake Nipissing (45152) Wave Buoy

9:00pm - Wed 27th Aug 2014 All times are CDT. -5 hours from GMT.

  • Sig Wave height 1.0ft
  • Peak Period 3s
  • Wind
    16mph, 20mph gusts
  • Sea Temp 67°f
  • Air Temp 62°f
  • Sea Pressure 1017.8mb
  • Lake Nipissing
  • Lake Nipissing

More Historic Weather Station data

Upgrade to MSW Pro to gain access to the past 30 days of data for over 8000 Wavebouys and Weather Stations around the globe.

Join Pro

Comparision Forecast

View Surf forecast
   
Wed 08/27 9:00pm 1ft 3s 16 20 mph 1017.8mb 67f 62f
8:00pm 1ft 3s 13 18 mph 1017.6mb 67f 62f
7:00pm 1.3ft 3s 18 22 mph 1017.1mb 67f 62f
6:00pm 1ft 3s 13 18 mph 1016.7mb 67f 64f
5:00pm 1.3ft 3s 13 16 mph 1016.8mb 67f 64f
4:00pm 1.3ft 3s 13 16 mph 1016.7mb 68f 64f
3:00pm 1.3ft 3s 13 16 mph 1016.6mb 67f 64f
2:00pm 1ft 3s 16 20 mph 1016.7mb 67f 64f
1:00pm 0.3ft 2s 13 16 mph 1016.9mb 68f 64f
12:00pm 0.7ft 2s 9 11 mph 1016.9mb 68f 63f
11:00am 0.3ft 2s 9 11 mph 1017.3mb 68f 62f
10:00am 0.3ft 2s 9 11 mph 1017.6mb 67f 61f
9:00am 0.7ft 2s 9 11 mph 1018.1mb 67f 60f
8:00am 0.7ft 2s 9 11 mph 1018mb 67f 60f
7:00am 0.7ft 2s 9 11 mph 1017.9mb 67f 58f
6:00am 0.7ft 2s 7 9 mph 1017.6mb 67f 58f
5:00am 0.7ft 2s 9 13 mph 1017.4mb 67f 60f
4:00am 1ft 2s 9 13 mph 1016.9mb 67f 60f
3:00am 1ft 3s 13 16 mph 1017mb 67f 61f
2:00am 1ft 3s 16 18 mph 1016.9mb 67f 63f
1:00am 0.7ft 2s 13 16 mph 1016.6mb 68f 63f
12:00am 0.7ft 2s 11 13 mph 1016.3mb 68f 64f
Tue 08/26 11:00pm 0.7ft 3s 11 13 mph 1016.1mb 68f 65f
10:00pm 1.3ft 3s 13 18 mph 1015.6mb 68f 66f
9:00pm 1ft 3s 16 20 mph 1014.9mb 68f 68f
8:00pm 1ft 3s 16 18 mph 1014.2mb 68f 68f
7:00pm 0.7ft 2s 11 13 mph 1013.2mb 68f 70f
6:00pm 1ft 2s 16 18 mph 1013.1mb 68f 72f
5:00pm 1.3ft 2s 16 20 mph 1012.8mb 68f 73f
4:00pm 1.6ft 3s 20 25 mph 1013mb 69f 73f
3:00pm 0.7ft 2s 16 20 mph 1012.9mb 69f 74f
2:00pm 0.7ft 2s 11 18 mph 1013mb 69f 76f
1:00pm 0.7ft 2s 11 13 mph 1013.5mb 69f 75f
12:00pm 0.7ft 2s 11 13 mph 1014.2mb 69f 74f
11:00am 0.3ft 2s 9 13 mph 1015mb 69f 72f
10:00am 0.3ft 2s 11 16 mph 1015mb 68f 71f
9:00am 0.7ft 2s 13 18 mph 1015.1mb 68f 70f
8:00am 0.7ft 2s 13 20 mph 1015.1mb 68f 70f
7:00am 0.7ft 2s 13 18 mph 1015.1mb 68f 70f
6:00am 0.7ft 2s 13 18 mph 1015.1mb 68f 70f
5:00am 0.7ft 2s 13 16 mph 1015mb 68f 70f
4:00am 0.7ft 2s 13 16 mph 1015mb 68f 70f
3:00am 0.7ft 2s 16 18 mph 1015mb 69f 70f
2:00am 0.7ft 2s 16 20 mph 1015mb 69f 71f
1:00am 0.7ft 2s 16 18 mph 1015mb 69f 71f
12:00am 0.3ft 2s 11 16 mph 1015.6mb 69f 71f
Mon 08/25 11:00pm 0.3ft 3s 9 11 mph 1015.9mb 69f 71f
10:00pm  -  2s 7 9 mph 1015.9mb 69f 70f
9:00pm  -  2s 4 7 mph 1016.3mb 69f 70f
8:00pm  -  2s 4
mph
1016.7mb 69f 71f
7:00pm  -  2s 7 9 mph 1016.5mb 70f 73f
6:00pm 0.3ft 2s 4 7 mph 1016.6mb 69f 74f
5:00pm 0.7ft 2s 11 16 mph 1016.8mb 70f 77f
4:00pm 0.7ft 2s 13 16 mph 1017.1mb 70f 77f
3:00pm 0.7ft 2s 16 25 mph 1017.2mb 70f 77f
2:00pm 0.3ft 2s 13 20 mph 1017.7mb 71f 77f
1:00pm  -  3s 2 7 mph 1018.8mb 71f 75f
12:00pm  -  3s 7 9 mph 1019.3mb 71f 71f
11:00am  -  3s 7 9 mph 1019.8mb 70f 70f
10:00am 0.3ft 2s 2 4 mph 1020mb 69f 72f
9:00am 0.3ft 2s 7 9 mph 1020.3mb 68f 71f
8:00am 0.3ft 2s 11 13 mph 1020.5mb 69f 68f
7:00am 0.3ft 2s 9 11 mph 1020.9mb 69f 65f
6:00am 0.3ft 2s 7
mph
1020.9mb 69f 65f
5:00am 0.3ft 2s 9 11 mph 1020.6mb 69f 66f
4:00am  -  2s 7 11 mph 1020.1mb 69f 65f
3:00am  -  3s 4
mph
1020mb 69f 65f
2:00am  -  2s 4
mph
1020.5mb 69f 66f
1:00am  -  2s 4
mph
1020.8mb 69f 67f
12:00am  -  2s 2 4 mph 1021.2mb 70f 67f
Sun 08/24 11:00pm  -  2s 4 7 mph 1021.1mb 70f 68f
10:00pm  -  4s 7
mph
1020.7mb 71f 69f
9:00pm  -  2s 7 9 mph 1020.5mb 71f 70f
8:00pm  -  2s 4
mph
1020.6mb 72f 71f
7:00pm  -  4s 2 4 mph 1020.4mb 72f 71f
6:00pm  -  2s 2
mph
1020.3mb 72f 76f
5:00pm  -  2s 4
mph
1020.5mb 72f 76f
4:00pm  -  3s 4
mph
1020.8mb 71f 76f
3:00pm  -  2s 4 7 mph 1021.1mb 71f 75f
2:00pm  -  3s 7
mph
1021.5mb 70f 74f
1:00pm  -  2s 7
mph
1021.9mb 70f 72f
12:00pm  -  2s 4 7 mph 1022.3mb 69f 70f
11:00am 0.3ft 2s 4
mph
1023.1mb 69f 68f
10:00am 0.3ft 2s 4
mph
1023.4mb 68f 67f
9:00am 0.3ft 2s 7 9 mph 1023.5mb 67f 65f
8:00am 0.3ft 2s 7 9 mph 1023.6mb 67f 64f
7:00am 0.3ft 2s 9
mph
1023.6mb 67f 64f
6:00am 0.3ft 2s 9
mph
1023.2mb 67f 64f
5:00am 0.3ft 2s 4 7 mph 1022.9mb 67f 62f
4:00am 0.3ft 2s 7 9 mph 1022.4mb 67f 64f